Time;durP1;ratioP1;P1;durP2;ratioP2;P2;SDS_P1;SDS_P2;PMS_P1;PMS_P2;Temp;Humidity;BMP_temperature;BMP_pressure;BME280_temperature;BME280_humidity;BME280_pressure;Samples;Min_cycle;Max_cycle;Signal;HPM_P1;HPM_P2
2021/05/26 00:01:09;;;;;;;;;18.33;17.00;;;;;;;;8702122;40;10158;-58
2021/05/26 00:07:11;;;;;;;;;20.33;19.00;;;;;;;;8704176;40;10060;-58
2021/05/26 00:13:13;;;;;;;;;15.00;15.00;;;;;;;;8702392;41;10110;-58
2021/05/26 00:19:15;;;;;;;;;15.67;15.67;;;;;;;;8703761;40;10148;-58
2021/05/26 00:25:17;;;;;;;;;20.00;17.00;;;;;;;;8703854;40;10220;-58
2021/05/26 00:31:22;;;;;;;;;19.33;19.33;;;;;;;;8702782;40;10146;-59
2021/05/26 00:37:23;;;;;;;;;21.67;18.33;;;;;;;;8703236;40;10734;-58
2021/05/26 00:43:25;;;;;;;;;19.33;18.67;;;;;;;;8702741;40;10178;-58
2021/05/26 00:49:27;;;;;;;;;22.33;21.33;;;;;;;;8703153;40;10377;-58
2021/05/26 00:55:29;;;;;;;;;18.67;17.67;;;;;;;;8703443;40;10111;-58
2021/05/26 01:01:32;;;;;;;;;21.33;20.00;;;;;;;;8702383;40;10070;-57
2021/05/26 01:07:38;;;;;;;;;16.00;13.67;;;;;;;;8700847;41;10302;-59
2021/05/26 01:13:40;;;;;;;;;15.00;15.00;;;;;;;;8702876;40;10597;-58
2021/05/26 01:19:42;;;;;;;;;18.00;17.33;;;;;;;;8701075;41;10208;-57
2021/05/26 01:25:47;;;;;;;;;14.33;13.33;;;;;;;;8701022;41;10082;-58
2021/05/26 01:31:49;;;;;;;;;18.33;16.67;;;;;;;;8700779;41;10142;-57
2021/05/26 01:37:52;;;;;;;;;18.00;15.67;;;;;;;;8701105;41;10561;-58
2021/05/26 01:43:55;;;;;;;;;17.00;17.00;;;;;;;;8700638;41;10071;-58
2021/05/26 01:49:59;;;;;;;;;18.67;18.00;;;;;;;;8700020;41;10183;-57
2021/05/26 01:56:04;;;;;;;;;20.33;18.00;;;;;;;;8700242;40;10287;-58
2021/05/26 02:02:20;;;;;;;;;19.67;17.00;;;;;;;;8699745;41;10620;-57
2021/05/26 02:08:22;;;;;;;;;17.00;15.00;;;;;;;;8700878;41;10251;-57
2021/05/26 02:14:24;;;;;;;;;15.33;15.33;;;;;;;;8699947;41;10218;-57
2021/05/26 02:20:32;;;;;;;;;18.67;17.33;;;;;;;;8701872;40;10172;-57
2021/05/26 02:26:34;;;;;;;;;13.67;13.00;;;;;;;;8701773;40;10074;-58
2021/05/26 02:32:37;;;;;;;;;13.67;13.67;;;;;;;;8700411;40;10149;-56
2021/05/26 02:38:42;;;;;;;;;17.33;16.33;;;;;;;;8699524;41;10214;-58
2021/05/26 02:44:44;;;;;;;;;21.00;20.00;;;;;;;;8700537;40;10117;-58
2021/05/26 02:50:47;;;;;;;;;22.00;19.33;;;;;;;;8699489;41;10708;-57
2021/05/26 02:56:52;;;;;;;;;16.33;15.33;;;;;;;;8702690;40;10154;-58
2021/05/26 03:03:13;;;;;;;;;16.00;15.33;;;;;;;;8705247;41;10163;-58
2021/05/26 03:09:16;;;;;;;;;17.33;17.33;;;;;;;;8703698;40;10135;-59
2021/05/26 03:15:22;;;;;;;;;18.33;18.00;;;;;;;;8704769;40;10144;-58
2021/05/26 03:21:26;;;;;;;;;18.33;17.67;;;;;;;;8704418;40;10115;-59
2021/05/26 03:27:47;;;;;;;;;20.00;18.00;;;;;;;;8703644;40;10210;-58
2021/05/26 03:33:49;;;;;;;;;18.67;18.00;;;;;;;;8703506;40;10147;-59
2021/05/26 03:39:51;;;;;;;;;17.67;17.33;;;;;;;;8703056;40;10790;-58
2021/05/26 03:45:55;;;;;;;;;18.00;17.00;;;;;;;;8702270;40;10868;-59
2021/05/26 03:51:57;;;;;;;;;19.33;17.33;;;;;;;;8703667;40;10213;-58
2021/05/26 03:58:00;;;;;;;;;20.00;16.00;;;;;;;;8701958;41;10157;-59
2021/05/26 04:04:03;;;;;;;;;18.00;17.67;;;;;;;;9738703;23;10847;-58
2021/05/26 04:10:07;;;;;;;;;20.00;18.00;;;;;;;;8701534;41;10140;-59
2021/05/26 04:16:11;;;;;;;;;15.67;15.00;;;;;;;;8707719;40;10171;-59
2021/05/26 04:22:35;;;;;;;;;22.00;18.67;;;;;;;;8704714;41;10798;-59
2021/05/26 04:28:45;;;;;;;;;17.67;15.33;;;;;;;;8706339;41;10175;-59
2021/05/26 04:34:49;;;;;;;;;8.00;8.00;;;;;;;;8705470;41;10023;-59
2021/05/26 04:40:51;;;;;;;;;16.00;14.67;;;;;;;;8706363;40;10093;-59
2021/05/26 04:46:53;;;;;;;;;14.33;13.00;;;;;;;;8696077;40;10175;-59
2021/05/26 04:52:55;;;;;;;;;14.00;13.00;;;;;;;;8681634;41;10272;-59
2021/05/26 04:58:57;;;;;;;;;16.00;15.33;;;;;;;;8683577;41;10681;-59
2021/05/26 05:04:59;;;;;;;;;16.00;15.00;;;;;;;;8681292;41;10157;-59
2021/05/26 05:11:01;;;;;;;;;20.00;20.00;;;;;;;;8682381;41;10107;-59
2021/05/26 05:17:03;;;;;;;;;16.67;12.33;;;;;;;;8682426;40;10116;-62
2021/05/26 05:23:05;;;;;;;;;20.33;18.00;;;;;;;;8679520;41;10224;-60
2021/05/26 05:29:07;;;;;;;;;21.33;16.00;;;;;;;;8679532;41;10182;-59
2021/05/26 05:35:10;;;;;;;;;21.00;16.00;;;;;;;;8679328;41;10080;-60
2021/05/26 05:41:11;;;;;;;;;13.33;13.00;;;;;;;;8679266;41;10447;-59
2021/05/26 05:47:15;;;;;;;;;14.00;13.33;;;;;;;;8679871;41;10207;-60
2021/05/26 05:53:17;;;;;;;;;17.33;16.00;;;;;;;;8679282;41;10265;-61
2021/05/26 05:59:19;;;;;;;;;15.67;15.00;;;;;;;;8682699;41;10643;-61
2021/05/26 06:05:21;;;;;;;;;19.00;18.75;;;;;;;;8680806;41;11003;-60
2021/05/26 06:11:23;;;;;;;;;16.00;14.25;;;;;;;;8677317;41;11285;-59
2021/05/26 06:17:25;;;;;;;;;15.00;13.25;;;;;;;;8683120;41;11904;-61
2021/05/26 06:23:27;;;;;;;;;11.50;11.50;;;;;;;;8676921;41;10921;-61
2021/05/26 06:29:30;;;;;;;;;17.50;15.75;;;;;;;;8674784;41;11044;-60
2021/05/26 06:35:32;;;;;;;;;14.25;12.75;;;;;;;;8678641;41;10880;-59
2021/05/26 06:41:34;;;;;;;;;13.25;12.25;;;;;;;;8680126;41;10502;-60
2021/05/26 06:47:36;;;;;;;;;13.50;13.50;;;;;;;;8679691;41;10651;-59
2021/05/26 06:53:38;;;;;;;;;13.00;13.00;;;;;;;;8674405;41;10569;-59
2021/05/26 06:59:40;;;;;;;;;12.00;12.00;;;;;;;;8660492;41;11898;-59
2021/05/26 07:05:42;;;;;;;;;6.75;6.75;;;;;;;;8673680;41;10429;-59
2021/05/26 07:11:44;;;;;;;;;7.25;7.25;;;;;;;;8679740;41;10518;-60
2021/05/26 07:17:46;;;;;;;;;13.00;11.75;;;;;;;;8680829;41;10511;-59
2021/05/26 07:23:48;;;;;;;;;9.50;9.50;;;;;;;;8680651;41;10492;-60
2021/05/26 07:29:50;;;;;;;;;12.50;10.50;;;;;;;;8679104;41;10559;-60
2021/05/26 07:35:53;;;;;;;;;13.25;13.25;;;;;;;;8668482;41;10788;-59
2021/05/26 07:42:13;;;;;;;;;11.25;11.25;;;;;;;;8658632;41;10651;-60
2021/05/26 07:48:15;;;;;;;;;9.25;9.25;;;;;;;;8661607;41;10502;-61
2021/05/26 07:54:18;;;;;;;;;13.50;12.00;;;;;;;;8676564;41;10559;-60
2021/05/26 08:00:21;;;;;;;;;12.25;12.25;;;;;;;;8663876;41;10727;-60
2021/05/26 08:06:23;;;;;;;;;13.00;12.00;;;;;;;;8656748;41;11195;-59
2021/05/26 08:12:25;;;;;;;;;13.25;13.25;;;;;;;;8661064;41;11189;-60
2021/05/26 08:18:26;;;;;;;;;13.50;13.50;;;;;;;;8668598;41;10735;-62
2021/05/26 08:24:28;;;;;;;;;15.25;13.00;;;;;;;;8657722;41;11425;-60
2021/05/26 08:30:30;;;;;;;;;11.00;11.00;;;;;;;;8668986;41;10774;-58
2021/05/26 08:36:32;;;;;;;;;16.25;15.25;;;;;;;;8670680;41;11087;-61
2021/05/26 08:42:35;;;;;;;;;15.50;14.50;;;;;;;;8655157;41;10949;-63
2021/05/26 08:48:38;;;;;;;;;17.50;16.00;;;;;;;;8677271;41;10974;-61
2021/05/26 08:54:42;;;;;;;;;16.75;15.50;;;;;;;;8663460;41;11672;-61
2021/05/26 09:00:45;;;;;;;;;14.00;13.00;;;;;;;;8672119;41;10699;-63
2021/05/26 09:07:14;;;;;;;;;16.00;13.00;;;;;;;;8658521;41;10625;-61
2021/05/26 09:13:29;;;;;;;;;15.50;13.75;;;;;;;;8667842;41;10588;-61
2021/05/26 09:19:31;;;;;;;;;17.25;14.25;;;;;;;;8677339;41;10605;-61
2021/05/26 09:25:37;;;;;;;;;14.50;13.00;;;;;;;;8671206;41;10549;-63
2021/05/26 09:31:43;;;;;;;;;13.00;13.00;;;;;;;;8658834;41;10608;-60
2021/05/26 09:37:56;;;;;;;;;11.00;11.00;;;;;;;;8670837;41;10615;-62
2021/05/26 09:44:00;;;;;;;;;14.25;12.50;;;;;;;;8656337;41;10528;-60
2021/05/26 09:50:18;;;;;;;;;10.00;10.00;;;;;;;;8672290;41;11197;-60
2021/05/26 09:56:26;;;;;;;;;11.50;11.50;;;;;;;;8654111;41;10613;-61
2021/05/26 10:02:30;;;;;;;;;37.00;34.00;;;;;;;;8669369;41;10877;-60
2021/05/26 10:08:34;;;;;;;;;10.00;10.00;;;;;;;;8677478;41;10605;-61
2021/05/26 10:15:11;;;;;;;;;20.00;19.50;;;;;;;;8675503;41;10755;-61
2021/05/26 10:21:15;;;;;;;;;14.75;14.00;;;;;;;;8686297;41;10675;-59
2021/05/26 10:27:45;;;;;;;;;15.50;13.00;;;;;;;;8673730;41;10589;-61
2021/05/26 10:33:47;;;;;;;;;10.75;10.50;;;;;;;;8656388;41;10802;-60
2021/05/26 10:39:49;;;;;;;;;18.25;15.75;;;;;;;;8671786;41;10635;-61
2021/05/26 10:45:53;;;;;;;;;15.00;15.00;;;;;;;;8663659;41;11419;-62
2021/05/26 10:51:57;;;;;;;;;10.50;10.50;;;;;;;;8664363;41;10654;-62
2021/05/26 10:58:25;;;;;;;;;18.25;16.50;;;;;;;;8679833;41;10661;-61
2021/05/26 11:04:28;;;;;;;;;12.50;11.25;;;;;;;;8680465;41;10545;-62
2021/05/26 11:10:32;;;;;;;;;6.25;6.25;;;;;;;;8678828;40;10546;-62
2021/05/26 11:16:40;;;;;;;;;10.75;9.50;;;;;;;;8671742;41;10643;-61
2021/05/26 11:22:42;;;;;;;;;20.75;17.25;;;;;;;;8657719;41;10691;-61
2021/05/26 11:28:49;;;;;;;;;21.50;21.00;;;;;;;;8679872;41;10687;-59
2021/05/26 11:34:54;;;;;;;;;19.00;19.00;;;;;;;;8661475;41;10684;-61
2021/05/26 11:40:58;;;;;;;;;9.50;9.50;;;;;;;;8665395;41;10577;-62
2021/05/26 11:47:00;;;;;;;;;21.00;18.75;;;;;;;;8657366;41;10702;-60
2021/05/26 11:53:01;;;;;;;;;11.50;11.50;;;;;;;;8670545;41;10654;-59
2021/05/26 11:59:03;;;;;;;;;9.75;9.75;;;;;;;;8656515;41;10562;-60
2021/05/26 12:05:06;;;;;;;;;18.00;17.00;;;;;;;;8668829;41;10698;-60
2021/05/26 12:11:14;;;;;;;;;14.25;13.25;;;;;;;;8680118;41;10656;-61
2021/05/26 12:17:21;;;;;;;;;12.00;10.75;;;;;;;;8677392;41;10618;-61
2021/05/26 12:23:29;;;;;;;;;14.25;11.50;;;;;;;;8679042;41;10662;-60
2021/05/26 12:29:31;;;;;;;;;11.50;11.50;;;;;;;;8665491;40;11178;-60
2021/05/26 12:35:36;;;;;;;;;9.00;9.00;;;;;;;;8672120;41;10982;-59
2021/05/26 12:41:39;;;;;;;;;9.75;9.75;;;;;;;;8660531;41;10653;-62
2021/05/26 12:47:41;;;;;;;;;13.50;12.00;;;;;;;;8659453;41;10653;-61
2021/05/26 12:53:43;;;;;;;;;7.75;7.75;;;;;;;;8676473;41;10519;-59
2021/05/26 12:59:54;;;;;;;;;9.75;9.75;;;;;;;;8660522;41;10718;-60
2021/05/26 13:05:56;;;;;;;;;14.50;13.25;;;;;;;;8655887;41;10674;-60
2021/05/26 13:11:58;;;;;;;;;6.25;6.25;;;;;;;;8684660;41;11151;-61
2021/05/26 13:18:01;;;;;;;;;9.75;9.75;;;;;;;;8655037;41;10522;-61
2021/05/26 13:24:03;;;;;;;;;11.00;10.25;;;;;;;;8670817;41;10688;-61
2021/05/26 13:30:06;;;;;;;;;14.75;14.00;;;;;;;;8663281;41;10647;-60
2021/05/26 13:36:08;;;;;;;;;11.75;10.00;;;;;;;;8667980;41;10735;-62
2021/05/26 13:42:10;;;;;;;;;8.00;6.50;;;;;;;;8675440;40;10482;-60
2021/05/26 13:48:12;;;;;;;;;9.00;7.00;;;;;;;;8675815;41;10551;-61
2021/05/26 13:54:14;;;;;;;;;10.00;10.00;;;;;;;;8675768;41;10669;-61
2021/05/26 14:00:16;;;;;;;;;6.25;6.25;;;;;;;;8675424;41;10472;-61
2021/05/26 14:06:18;;;;;;;;;9.50;9.00;;;;;;;;8683807;41;10547;-59
2021/05/26 14:12:21;;;;;;;;;10.00;9.50;;;;;;;;8678030;41;10462;-60
2021/05/26 14:18:23;;;;;;;;;5.00;5.00;;;;;;;;8676668;41;10503;-61
2021/05/26 14:24:36;;;;;;;;;8.75;8.00;;;;;;;;8677491;41;11084;-62
2021/05/26 14:30:38;;;;;;;;;9.25;9.25;;;;;;;;8677104;41;10681;-61
2021/05/26 14:36:42;;;;;;;;;5.00;5.00;;;;;;;;8677537;41;11066;-63
2021/05/26 14:42:44;;;;;;;;;9.75;9.75;;;;;;;;8676805;41;10547;-60
2021/05/26 14:48:46;;;;;;;;;7.00;7.00;;;;;;;;8676491;41;10929;-61
2021/05/26 14:54:49;;;;;;;;;7.25;7.25;;;;;;;;8677408;41;10539;-61
2021/05/26 15:00:51;;;;;;;;;7.00;7.00;;;;;;;;8680358;41;10440;-61
2021/05/26 15:06:53;;;;;;;;;7.50;7.50;;;;;;;;8677936;41;10713;-62
2021/05/26 15:12:55;;;;;;;;;5.25;5.00;;;;;;;;8680428;41;10512;-60
2021/05/26 15:18:57;;;;;;;;;7.50;7.50;;;;;;;;8680688;41;10461;-61
2021/05/26 15:24:59;;;;;;;;;5.75;5.25;;;;;;;;8680070;41;11126;-60
2021/05/26 15:31:01;;;;;;;;;6.75;6.75;;;;;;;;8679720;41;10472;-60
2021/05/26 15:37:03;;;;;;;;;7.00;5.50;;;;;;;;8680255;41;10483;-61
2021/05/26 15:43:06;;;;;;;;;8.00;5.00;;;;;;;;8680507;41;10555;-59
2021/05/26 15:49:08;;;;;;;;;5.00;5.00;;;;;;;;8680041;41;11160;-60
2021/05/26 15:55:12;;;;;;;;;10.00;8.00;;;;;;;;8680566;41;10634;-61
2021/05/26 16:01:14;;;;;;;;;13.00;12.75;;;;;;;;8680148;41;10734;-61
2021/05/26 16:07:16;;;;;;;;;8.75;5.25;;;;;;;;8678694;41;10478;-61
2021/05/26 16:13:17;;;;;;;;;18.75;18.75;;;;;;;;8681144;41;11486;-61
2021/05/26 16:19:22;;;;;;;;;19.00;15.75;;;;;;;;8680039;41;10815;-60
2021/05/26 16:25:27;;;;;;;;;16.25;15.25;;;;;;;;8682254;41;10900;-60
2021/05/26 16:31:29;;;;;;;;;13.75;12.50;;;;;;;;8679058;41;11107;-59
2021/05/26 16:37:31;;;;;;;;;15.75;14.75;;;;;;;;8678809;41;10918;-60
2021/05/26 16:43:33;;;;;;;;;20.50;17.25;;;;;;;;8679994;41;10949;-60
2021/05/26 16:49:36;;;;;;;;;15.25;14.50;;;;;;;;8678359;41;10967;-61
2021/05/26 16:55:38;;;;;;;;;15.00;13.00;;;;;;;;8679281;41;10913;-62
2021/05/26 17:01:41;;;;;;;;;16.50;15.50;;;;;;;;8662234;41;11012;-59
2021/05/26 17:07:43;;;;;;;;;20.67;19.33;;;;;;;;8677914;41;10862;-58
2021/05/26 17:13:45;;;;;;;;;20.00;17.33;;;;;;;;8679660;41;10595;-61
2021/05/26 17:19:47;;;;;;;;;15.50;15.50;;;;;;;;8676864;41;11520;-61
2021/05/26 17:25:49;;;;;;;;;15.00;15.00;;;;;;;;8678014;41;11020;-60
2021/05/26 17:31:53;;;;;;;;;20.75;17.50;;;;;;;;8679057;41;11685;-60
2021/05/26 17:37:56;;;;;;;;;13.75;13.75;;;;;;;;8677447;41;10957;-62
2021/05/26 17:43:58;;;;;;;;;20.33;17.33;;;;;;;;8679396;41;10272;-59
2021/05/26 17:50:00;;;;;;;;;22.75;18.75;;;;;;;;8677749;41;11054;-60
2021/05/26 17:56:06;;;;;;;;;13.33;12.00;;;;;;;;8678645;41;11236;-60
2021/05/26 18:02:08;;;;;;;;;24.33;22.67;;;;;;;;8678167;41;10736;-59
2021/05/26 18:08:10;;;;;;;;;23.00;23.00;;;;;;;;8677249;41;10299;-60
2021/05/26 18:14:13;;;;;;;;;20.33;18.00;;;;;;;;8678334;41;10307;-59
2021/05/26 18:20:19;;;;;;;;;28.33;27.00;;;;;;;;8677752;41;10203;-59
2021/05/26 18:26:21;;;;;;;;;17.33;16.67;;;;;;;;8677520;41;10685;-60
2021/05/26 18:32:24;;;;;;;;;26.33;25.00;;;;;;;;8681062;41;10203;-59
2021/05/26 18:38:26;;;;;;;;;21.00;20.33;;;;;;;;8680798;41;10876;-59
2021/05/26 18:44:28;;;;;;;;;23.00;21.33;;;;;;;;8681906;41;10154;-60
2021/05/26 18:50:32;;;;;;;;;17.67;17.67;;;;;;;;8680889;41;10509;-59
2021/05/26 18:56:34;;;;;;;;;27.67;23.33;;;;;;;;8681536;41;10197;-60
2021/05/26 19:02:36;;;;;;;;;23.00;22.00;;;;;;;;8680844;40;10174;-60
2021/05/26 19:08:38;;;;;;;;;25.67;25.67;;;;;;;;8679853;41;10159;-59
2021/05/26 19:14:42;;;;;;;;;24.33;23.33;;;;;;;;8680131;41;10196;-60
2021/05/26 19:20:45;;;;;;;;;25.33;24.67;;;;;;;;8679960;41;10295;-59
2021/05/26 19:26:49;;;;;;;;;21.00;20.00;;;;;;;;8681295;41;10759;-60
2021/05/26 19:32:52;;;;;;;;;23.33;21.00;;;;;;;;8680415;41;10218;-59
2021/05/26 19:38:54;;;;;;;;;30.33;27.33;;;;;;;;8680921;41;10198;-59
2021/05/26 19:44:57;;;;;;;;;23.67;23.00;;;;;;;;8679491;41;10475;-59
2021/05/26 19:50:59;;;;;;;;;25.67;22.67;;;;;;;;8679065;41;10228;-59
2021/05/26 19:57:02;;;;;;;;;25.67;25.67;;;;;;;;8679491;41;10275;-59
2021/05/26 20:03:04;;;;;;;;;22.00;18.67;;;;;;;;8680383;41;10153;-60
2021/05/26 20:09:06;;;;;;;;;27.33;27.33;;;;;;;;8679286;41;10384;-59
2021/05/26 20:15:09;;;;;;;;;34.33;27.33;;;;;;;;8678342;41;10272;-60
2021/05/26 20:21:14;;;;;;;;;32.67;30.00;;;;;;;;8678903;41;10107;-59
2021/05/26 20:27:16;;;;;;;;;28.33;25.67;;;;;;;;8679198;41;10119;-59
2021/05/26 20:33:18;;;;;;;;;25.67;22.33;;;;;;;;8679728;41;10159;-58
2021/05/26 20:39:20;;;;;;;;;20.67;20.00;;;;;;;;8678750;41;10212;-60
2021/05/26 20:45:22;;;;;;;;;27.00;22.67;;;;;;;;8679186;41;10373;-60
2021/05/26 20:51:24;;;;;;;;;25.67;20.00;;;;;;;;8678991;41;11153;-62
2021/05/26 20:57:26;;;;;;;;;21.67;21.33;;;;;;;;8679499;41;10161;-58
2021/05/26 21:03:28;;;;;;;;;17.00;17.00;;;;;;;;8685842;41;10072;-58
2021/05/26 21:09:30;;;;;;;;;16.33;16.33;;;;;;;;8685602;41;10144;-59
2021/05/26 21:15:32;;;;;;;;;14.33;13.33;;;;;;;;8678707;41;10224;-61
2021/05/26 21:21:34;;;;;;;;;15.00;13.33;;;;;;;;8668840;41;10633;-59
2021/05/26 21:27:37;;;;;;;;;10.67;10.67;;;;;;;;8655313;41;10432;-59
2021/05/26 21:33:39;;;;;;;;;13.33;13.33;;;;;;;;8655409;41;10189;-59
2021/05/26 21:39:41;;;;;;;;;12.33;11.33;;;;;;;;8653876;41;10105;-59
2021/05/26 21:45:43;;;;;;;;;12.33;12.00;;;;;;;;8654462;41;10651;-59
2021/05/26 21:51:45;;;;;;;;;9.67;9.67;;;;;;;;8653968;41;10123;-59
2021/05/26 21:57:47;;;;;;;;;13.33;13.33;;;;;;;;8654134;41;10949;-59
2021/05/26 22:03:49;;;;;;;;;17.33;16.00;;;;;;;;8654508;41;10141;-58
2021/05/26 22:09:51;;;;;;;;;16.67;16.33;;;;;;;;8657713;41;10177;-58
2021/05/26 22:15:57;;;;;;;;;16.33;15.00;;;;;;;;8657422;41;10133;-58
2021/05/26 22:21:59;;;;;;;;;16.00;16.00;;;;;;;;8657534;41;10192;-58
2021/05/26 22:28:01;;;;;;;;;16.67;13.67;;;;;;;;8657001;41;10199;-58
2021/05/26 22:34:03;;;;;;;;;13.33;13.33;;;;;;;;8673263;41;10147;-58
2021/05/26 22:40:08;;;;;;;;;21.00;20.33;;;;;;;;8680724;41;10133;-58
2021/05/26 22:46:25;;;;;;;;;18.00;14.33;;;;;;;;8681094;41;10157;-58
2021/05/26 22:52:26;;;;;;;;;20.50;18.00;;;;;;;;8680582;41;10097;-57
2021/05/26 22:58:28;;;;;;;;;18.33;16.33;;;;;;;;8680978;41;10524;-58
2021/05/26 23:04:31;;;;;;;;;17.67;17.00;;;;;;;;8680687;41;10367;-58
2021/05/26 23:10:33;;;;;;;;;20.67;20.00;;;;;;;;8679270;41;10871;-58
2021/05/26 23:16:35;;;;;;;;;19.00;19.00;;;;;;;;8687105;41;10126;-57
2021/05/26 23:22:37;;;;;;;;;20.00;16.67;;;;;;;;8679403;41;10163;-58
2021/05/26 23:28:39;;;;;;;;;16.67;16.67;;;;;;;;8680785;41;10256;-57
2021/05/26 23:34:41;;;;;;;;;19.33;19.00;;;;;;;;8679299;41;10116;-57
2021/05/26 23:40:44;;;;;;;;;21.67;20.00;;;;;;;;8680960;41;10184;-59
2021/05/26 23:46:46;;;;;;;;;19.00;19.00;;;;;;;;8681828;41;10154;-59
2021/05/26 23:52:50;;;;;;;;;19.67;18.00;;;;;;;;8678225;40;10132;-58
2021/05/26 23:58:52;;;;;;;;;18.00;18.00;;;;;;;;8680498;41;10258;-58
